メインページ
METAR-TAF:

METAR-TAF

空港 :

スーセントマリー, ミシガン州, アメリカ合衆国

緯度: 46-15N, 経度: 084-28W, 海抜: 244m

現時点の気象観測

当レポートは35分前の23:56(UTC)に作成
北/北西の風 8kt
気温 21°C
湿度 83%
気圧 1012 hPa
視程: 16.1km
晴天

METAR: KCIU 162356Z AUTO 33008KT 10SM CLR 21/18 A2987 RMK AO2 SLP111 T02110178 10267 20211 53010

時間: 20:31 (00:31 UTC)


TAF: 見つかりません

4,000以上の空港の気象観測と天気予報(METAR報とTAF報)

利用可能な観測所は地図上に黄色い丸と赤い丸で示す。

丸の上にカーソルを重ねると観測所名を参照できる。

次にクリックすると気象観測と天気予報を参照できる。

マップの切り替え:黒色「×」印の緑ボタンをクリックして拡大、「-」印の緑ボタンをクリックして縮小、緑色の三角印をクリックして隣りの地図に切り替え


METAR-TAF: